sensor_id;sensor_type;location;lat;lon;timestamp;P1;durP1;ratioP1;P2;durP2;ratioP2
72437;SDS011;60444;43.534;-5.674;2023-02-11T00:01:29;19.98;;;8.40;;
72437;SDS011;60444;43.534;-5.674;2023-02-11T00:03:57;19.17;;;8.63;;
72437;SDS011;60444;43.534;-5.674;2023-02-11T00:06:23;21.27;;;9.85;;
72437;SDS011;60444;43.534;-5.674;2023-02-11T00:08:50;17.13;;;7.90;;
72437;SDS011;60444;43.534;-5.674;2023-02-11T00:11:16;16.63;;;7.57;;
72437;SDS011;60444;43.534;-5.674;2023-02-11T00:13:43;14.68;;;7.15;;
72437;SDS011;60444;43.534;-5.674;2023-02-11T00:16:11;19.80;;;7.85;;
72437;SDS011;60444;43.534;-5.674;2023-02-11T00:18:41;17.15;;;7.22;;
72437;SDS011;60444;43.534;-5.674;2023-02-11T00:21:16;16.60;;;7.03;;
72437;SDS011;60444;43.534;-5.674;2023-02-11T00:23:44;14.73;;;7.07;;
72437;SDS011;60444;43.534;-5.674;2023-02-11T00:26:20;15.88;;;7.30;;
72437;SDS011;60444;43.534;-5.674;2023-02-11T00:28:51;13.05;;;6.82;;
72437;SDS011;60444;43.534;-5.674;2023-02-11T00:31:18;15.63;;;7.45;;
72437;SDS011;60444;43.534;-5.674;2023-02-11T00:33:45;20.57;;;9.83;;
72437;SDS011;60444;43.534;-5.674;2023-02-11T00:36:19;17.40;;;7.20;;
72437;SDS011;60444;43.534;-5.674;2023-02-11T00:38:49;13.23;;;7.28;;
72437;SDS011;60444;43.534;-5.674;2023-02-11T00:41:16;17.92;;;7.85;;
72437;SDS011;60444;43.534;-5.674;2023-02-11T00:43:42;17.63;;;8.50;;
72437;SDS011;60444;43.534;-5.674;2023-02-11T00:46:08;14.27;;;7.17;;
72437;SDS011;60444;43.534;-5.674;2023-02-11T00:48:34;15.43;;;6.70;;
72437;SDS011;60444;43.534;-5.674;2023-02-11T00:51:00;15.90;;;7.87;;
72437;SDS011;60444;43.534;-5.674;2023-02-11T00:53:25;14.23;;;6.80;;
72437;SDS011;60444;43.534;-5.674;2023-02-11T00:55:51;14.93;;;7.40;;
72437;SDS011;60444;43.534;-5.674;2023-02-11T00:58:17;19.53;;;8.57;;
72437;SDS011;60444;43.534;-5.674;2023-02-11T01:00:42;18.90;;;8.73;;
72437;SDS011;60444;43.534;-5.674;2023-02-11T01:03:08;15.57;;;7.57;;
72437;SDS011;60444;43.534;-5.674;2023-02-11T01:05:34;13.23;;;7.10;;
72437;SDS011;60444;43.534;-5.674;2023-02-11T01:07:59;24.42;;;10.32;;
72437;SDS011;60444;43.534;-5.674;2023-02-11T01:10:25;14.50;;;7.17;;
72437;SDS011;60444;43.534;-5.674;2023-02-11T01:12:50;20.07;;;8.50;;
72437;SDS011;60444;43.534;-5.674;2023-02-11T01:15:17;21.65;;;8.77;;
72437;SDS011;60444;43.534;-5.674;2023-02-11T01:17:44;20.65;;;10.40;;
72437;SDS011;60444;43.534;-5.674;2023-02-11T01:20:14;20.33;;;8.53;;
72437;SDS011;60444;43.534;-5.674;2023-02-11T01:22:46;19.88;;;8.38;;
72437;SDS011;60444;43.534;-5.674;2023-02-11T01:25:11;18.57;;;10.23;;
72437;SDS011;60444;43.534;-5.674;2023-02-11T01:27:37;19.27;;;8.70;;
72437;SDS011;60444;43.534;-5.674;2023-02-11T01:30:04;20.97;;;10.17;;
72437;SDS011;60444;43.534;-5.674;2023-02-11T01:32:30;19.05;;;9.02;;
72437;SDS011;60444;43.534;-5.674;2023-02-11T01:34:56;16.97;;;8.07;;
72437;SDS011;60444;43.534;-5.674;2023-02-11T01:37:21;15.48;;;8.38;;
72437;SDS011;60444;43.534;-5.674;2023-02-11T01:39:47;20.57;;;9.43;;
72437;SDS011;60444;43.534;-5.674;2023-02-11T01:42:17;19.20;;;9.83;;
72437;SDS011;60444;43.534;-5.674;2023-02-11T01:44:47;19.95;;;9.93;;
72437;SDS011;60444;43.534;-5.674;2023-02-11T01:47:15;22.60;;;11.73;;
72437;SDS011;60444;43.534;-5.674;2023-02-11T01:49:43;16.63;;;9.52;;
72437;SDS011;60444;43.534;-5.674;2023-02-11T01:52:13;17.55;;;9.48;;
72437;SDS011;60444;43.534;-5.674;2023-02-11T01:54:51;22.13;;;10.70;;
72437;SDS011;60444;43.534;-5.674;2023-02-11T01:57:38;20.52;;;9.77;;
72437;SDS011;60444;43.534;-5.674;2023-02-11T02:00:09;24.48;;;13.02;;
72437;SDS011;60444;43.534;-5.674;2023-02-11T02:02:41;28.02;;;10.25;;
72437;SDS011;60444;43.534;-5.674;2023-02-11T02:07:59;15.20;;;9.10;;
72437;SDS011;60444;43.534;-5.674;2023-02-11T02:10:46;18.88;;;9.80;;
72437;SDS011;60444;43.534;-5.674;2023-02-11T02:13:13;20.17;;;10.95;;
72437;SDS011;60444;43.534;-5.674;2023-02-11T02:16:01;19.25;;;10.50;;
72437;SDS011;60444;43.534;-5.674;2023-02-11T02:24:02;25.20;;;10.07;;
72437;SDS011;60444;43.534;-5.674;2023-02-11T02:26:45;16.10;;;7.80;;
72437;SDS011;60444;43.534;-5.674;2023-02-11T02:38:18;17.65;;;8.55;;
72437;SDS011;60444;43.534;-5.674;2023-02-11T02:41:02;18.33;;;9.25;;
72437;SDS011;60444;43.534;-5.674;2023-02-11T02:43:32;19.58;;;9.45;;
72437;SDS011;60444;43.534;-5.674;2023-02-11T02:48:58;22.33;;;10.83;;
72437;SDS011;60444;43.534;-5.674;2023-02-11T02:59:52;20.83;;;10.85;;
72437;SDS011;60444;43.534;-5.674;2023-02-11T03:02:32;18.00;;;10.57;;
72437;SDS011;60444;43.534;-5.674;2023-02-11T03:08:08;18.27;;;9.13;;
72437;SDS011;60444;43.534;-5.674;2023-02-11T03:10:41;17.23;;;9.15;;
72437;SDS011;60444;43.534;-5.674;2023-02-11T03:13:10;17.25;;;8.80;;
72437;SDS011;60444;43.534;-5.674;2023-02-11T03:15:38;21.23;;;9.33;;
72437;SDS011;60444;43.534;-5.674;2023-02-11T03:18:08;19.88;;;9.05;;
72437;SDS011;60444;43.534;-5.674;2023-02-11T03:20:37;19.80;;;8.82;;
72437;SDS011;60444;43.534;-5.674;2023-02-11T03:25:51;23.95;;;10.98;;
72437;SDS011;60444;43.534;-5.674;2023-02-11T03:28:25;17.17;;;9.13;;
72437;SDS011;60444;43.534;-5.674;2023-02-11T03:30:54;17.20;;;9.05;;
72437;SDS011;60444;43.534;-5.674;2023-02-11T03:34:05;20.67;;;9.50;;
72437;SDS011;60444;43.534;-5.674;2023-02-11T03:39:12;16.63;;;8.15;;
72437;SDS011;60444;43.534;-5.674;2023-02-11T03:41:41;21.80;;;11.23;;
72437;SDS011;60444;43.534;-5.674;2023-02-11T03:44:09;19.50;;;9.85;;
72437;SDS011;60444;43.534;-5.674;2023-02-11T03:46:38;17.75;;;9.00;;
72437;SDS011;60444;43.534;-5.674;2023-02-11T03:49:08;21.27;;;10.10;;
72437;SDS011;60444;43.534;-5.674;2023-02-11T03:51:36;17.05;;;9.95;;
72437;SDS011;60444;43.534;-5.674;2023-02-11T03:54:04;14.53;;;7.67;;
72437;SDS011;60444;43.534;-5.674;2023-02-11T03:56:36;22.27;;;10.88;;
72437;SDS011;60444;43.534;-5.674;2023-02-11T03:59:07;17.17;;;9.68;;
72437;SDS011;60444;43.534;-5.674;2023-02-11T04:01:33;17.23;;;9.30;;
72437;SDS011;60444;43.534;-5.674;2023-02-11T04:03:58;15.45;;;9.10;;
72437;SDS011;60444;43.534;-5.674;2023-02-11T04:06:24;19.83;;;9.30;;
72437;SDS011;60444;43.534;-5.674;2023-02-11T04:08:49;17.63;;;10.13;;
72437;SDS011;60444;43.534;-5.674;2023-02-11T04:11:18;23.00;;;13.20;;
72437;SDS011;60444;43.534;-5.674;2023-02-11T04:13:43;21.47;;;12.27;;
72437;SDS011;60444;43.534;-5.674;2023-02-11T04:16:09;19.05;;;10.05;;
72437;SDS011;60444;43.534;-5.674;2023-02-11T04:18:34;16.03;;;8.27;;
72437;SDS011;60444;43.534;-5.674;2023-02-11T04:21:00;18.20;;;9.70;;
72437;SDS011;60444;43.534;-5.674;2023-02-11T04:23:25;17.23;;;8.73;;
72437;SDS011;60444;43.534;-5.674;2023-02-11T04:25:51;16.33;;;7.53;;
72437;SDS011;60444;43.534;-5.674;2023-02-11T04:28:17;20.00;;;9.17;;
72437;SDS011;60444;43.534;-5.674;2023-02-11T04:30:42;15.90;;;9.20;;
72437;SDS011;60444;43.534;-5.674;2023-02-11T04:33:07;13.33;;;6.77;;
72437;SDS011;60444;43.534;-5.674;2023-02-11T04:35:33;14.00;;;7.63;;
72437;SDS011;60444;43.534;-5.674;2023-02-11T04:37:58;18.37;;;9.23;;
72437;SDS011;60444;43.534;-5.674;2023-02-11T04:40:24;15.88;;;8.68;;
72437;SDS011;60444;43.534;-5.674;2023-02-11T04:42:49;14.63;;;8.93;;
72437;SDS011;60444;43.534;-5.674;2023-02-11T04:45:15;16.23;;;8.27;;
72437;SDS011;60444;43.534;-5.674;2023-02-11T04:47:41;15.32;;;7.85;;
72437;SDS011;60444;43.534;-5.674;2023-02-11T04:50:06;16.23;;;8.77;;
72437;SDS011;60444;43.534;-5.674;2023-02-11T04:52:32;17.40;;;7.73;;
72437;SDS011;60444;43.534;-5.674;2023-02-11T04:54:57;16.85;;;8.65;;
72437;SDS011;60444;43.534;-5.674;2023-02-11T04:57:22;17.20;;;8.47;;
72437;SDS011;60444;43.534;-5.674;2023-02-11T04:59:48;17.83;;;9.17;;
72437;SDS011;60444;43.534;-5.674;2023-02-11T05:02:13;14.57;;;7.07;;
72437;SDS011;60444;43.534;-5.674;2023-02-11T05:04:39;20.85;;;9.68;;
72437;SDS011;60444;43.534;-5.674;2023-02-11T05:07:05;17.20;;;8.67;;
72437;SDS011;60444;43.534;-5.674;2023-02-11T05:09:30;17.80;;;8.40;;
72437;SDS011;60444;43.534;-5.674;2023-02-11T05:11:56;16.42;;;8.65;;
72437;SDS011;60444;43.534;-5.674;2023-02-11T05:14:21;16.47;;;7.93;;
72437;SDS011;60444;43.534;-5.674;2023-02-11T05:16:47;24.13;;;10.80;;
72437;SDS011;60444;43.534;-5.674;2023-02-11T05:19:12;25.47;;;9.73;;
72437;SDS011;60444;43.534;-5.674;2023-02-11T05:21:38;24.27;;;9.47;;
72437;SDS011;60444;43.534;-5.674;2023-02-11T05:24:04;24.52;;;9.07;;
72437;SDS011;60444;43.534;-5.674;2023-02-11T05:26:29;24.80;;;9.50;;
72437;SDS011;60444;43.534;-5.674;2023-02-11T05:28:56;19.58;;;8.65;;
72437;SDS011;60444;43.534;-5.674;2023-02-11T05:31:21;20.07;;;8.80;;
72437;SDS011;60444;43.534;-5.674;2023-02-11T05:33:46;15.18;;;7.75;;
72437;SDS011;60444;43.534;-5.674;2023-02-11T05:36:12;21.53;;;8.50;;
72437;SDS011;60444;43.534;-5.674;2023-02-11T05:38:38;18.60;;;9.13;;
72437;SDS011;60444;43.534;-5.674;2023-02-11T05:41:04;18.90;;;8.37;;
72437;SDS011;60444;43.534;-5.674;2023-02-11T05:43:31;21.00;;;9.57;;
72437;SDS011;60444;43.534;-5.674;2023-02-11T05:45:56;17.13;;;7.93;;
72437;SDS011;60444;43.534;-5.674;2023-02-11T05:48:22;22.77;;;10.10;;
72437;SDS011;60444;43.534;-5.674;2023-02-11T05:50:47;16.03;;;8.07;;
72437;SDS011;60444;43.534;-5.674;2023-02-11T05:53:13;18.97;;;7.67;;
72437;SDS011;60444;43.534;-5.674;2023-02-11T05:55:39;16.00;;;7.22;;
72437;SDS011;60444;43.534;-5.674;2023-02-11T05:58:05;15.03;;;7.10;;
72437;SDS011;60444;43.534;-5.674;2023-02-11T06:00:32;17.58;;;7.88;;
72437;SDS011;60444;43.534;-5.674;2023-02-11T06:02:57;20.35;;;8.68;;
72437;SDS011;60444;43.534;-5.674;2023-02-11T06:05:23;18.03;;;6.80;;
72437;SDS011;60444;43.534;-5.674;2023-02-11T06:07:50;14.80;;;6.90;;
72437;SDS011;60444;43.534;-5.674;2023-02-11T06:10:16;15.32;;;7.38;;
72437;SDS011;60444;43.534;-5.674;2023-02-11T06:12:41;13.97;;;6.83;;
72437;SDS011;60444;43.534;-5.674;2023-02-11T06:15:08;15.47;;;6.57;;
72437;SDS011;60444;43.534;-5.674;2023-02-11T06:17:34;13.73;;;6.57;;
72437;SDS011;60444;43.534;-5.674;2023-02-11T06:20:03;16.45;;;6.57;;
72437;SDS011;60444;43.534;-5.674;2023-02-11T06:22:30;15.03;;;6.70;;
72437;SDS011;60444;43.534;-5.674;2023-02-11T06:24:56;19.77;;;7.82;;
72437;SDS011;60444;43.534;-5.674;2023-02-11T06:27:22;21.27;;;9.20;;
72437;SDS011;60444;43.534;-5.674;2023-02-11T06:29:47;17.83;;;8.47;;
72437;SDS011;60444;43.534;-5.674;2023-02-11T06:32:13;20.33;;;7.87;;
72437;SDS011;60444;43.534;-5.674;2023-02-11T06:34:38;17.77;;;7.30;;
72437;SDS011;60444;43.534;-5.674;2023-02-11T06:37:04;19.58;;;8.30;;
72437;SDS011;60444;43.534;-5.674;2023-02-11T06:39:29;19.43;;;8.60;;
72437;SDS011;60444;43.534;-5.674;2023-02-11T06:41:55;18.43;;;7.03;;
72437;SDS011;60444;43.534;-5.674;2023-02-11T06:44:20;16.48;;;7.40;;
72437;SDS011;60444;43.534;-5.674;2023-02-11T06:46:46;21.60;;;9.30;;
72437;SDS011;60444;43.534;-5.674;2023-02-11T06:49:12;15.73;;;7.82;;
72437;SDS011;60444;43.534;-5.674;2023-02-11T06:51:37;17.27;;;7.47;;
72437;SDS011;60444;43.534;-5.674;2023-02-11T06:54:03;18.37;;;8.07;;
72437;SDS011;60444;43.534;-5.674;2023-02-11T06:56:29;15.88;;;6.80;;
72437;SDS011;60444;43.534;-5.674;2023-02-11T06:58:55;19.02;;;8.23;;
72437;SDS011;60444;43.534;-5.674;2023-02-11T07:01:21;15.77;;;6.70;;
72437;SDS011;60444;43.534;-5.674;2023-02-11T07:03:48;15.43;;;8.85;;
72437;SDS011;60444;43.534;-5.674;2023-02-11T07:06:16;16.77;;;8.18;;
72437;SDS011;60444;43.534;-5.674;2023-02-11T07:08:44;19.15;;;10.55;;
72437;SDS011;60444;43.534;-5.674;2023-02-11T07:11:14;22.03;;;10.27;;
72437;SDS011;60444;43.534;-5.674;2023-02-11T07:13:41;16.67;;;7.93;;
72437;SDS011;60444;43.534;-5.674;2023-02-11T07:16:08;15.32;;;7.97;;
72437;SDS011;60444;43.534;-5.674;2023-02-11T07:18:35;14.93;;;7.93;;
72437;SDS011;60444;43.534;-5.674;2023-02-11T07:21:05;18.20;;;9.77;;
72437;SDS011;60444;43.534;-5.674;2023-02-11T07:23:32;19.17;;;8.13;;
72437;SDS011;60444;43.534;-5.674;2023-02-11T07:26:01;14.60;;;7.13;;
72437;SDS011;60444;43.534;-5.674;2023-02-11T07:28:31;16.05;;;6.90;;
72437;SDS011;60444;43.534;-5.674;2023-02-11T07:30:58;16.52;;;7.95;;
72437;SDS011;60444;43.534;-5.674;2023-02-11T07:33:23;18.50;;;7.77;;
72437;SDS011;60444;43.534;-5.674;2023-02-11T07:35:48;15.20;;;6.83;;
72437;SDS011;60444;43.534;-5.674;2023-02-11T07:38:14;15.65;;;8.15;;
72437;SDS011;60444;43.534;-5.674;2023-02-11T07:40:40;15.10;;;7.83;;
72437;SDS011;60444;43.534;-5.674;2023-02-11T07:43:05;15.87;;;7.10;;
72437;SDS011;60444;43.534;-5.674;2023-02-11T07:45:31;11.47;;;6.30;;
72437;SDS011;60444;43.534;-5.674;2023-02-11T07:47:56;14.10;;;6.93;;
72437;SDS011;60444;43.534;-5.674;2023-02-11T07:50:22;18.37;;;7.53;;
72437;SDS011;60444;43.534;-5.674;2023-02-11T07:52:47;12.87;;;6.63;;
72437;SDS011;60444;43.534;-5.674;2023-02-11T07:55:13;14.93;;;6.78;;
72437;SDS011;60444;43.534;-5.674;2023-02-11T07:57:38;13.63;;;6.93;;
72437;SDS011;60444;43.534;-5.674;2023-02-11T08:00:05;15.48;;;7.80;;
72437;SDS011;60444;43.534;-5.674;2023-02-11T08:02:31;15.47;;;7.57;;
72437;SDS011;60444;43.534;-5.674;2023-02-11T08:04:59;15.68;;;8.15;;
72437;SDS011;60444;43.534;-5.674;2023-02-11T08:07:24;17.20;;;7.40;;
72437;SDS011;60444;43.534;-5.674;2023-02-11T08:09:50;13.93;;;6.68;;
72437;SDS011;60444;43.534;-5.674;2023-02-11T08:12:15;16.17;;;7.47;;
72437;SDS011;60444;43.534;-5.674;2023-02-11T08:14:41;19.40;;;8.00;;
72437;SDS011;60444;43.534;-5.674;2023-02-11T08:17:06;13.35;;;6.45;;
72437;SDS011;60444;43.534;-5.674;2023-02-11T08:19:32;12.03;;;6.33;;
72437;SDS011;60444;43.534;-5.674;2023-02-11T08:21:57;13.63;;;8.00;;
72437;SDS011;60444;43.534;-5.674;2023-02-11T08:24:24;16.60;;;7.53;;
72437;SDS011;60444;43.534;-5.674;2023-02-11T08:26:50;13.17;;;5.63;;
72437;SDS011;60444;43.534;-5.674;2023-02-11T08:29:16;12.70;;;7.38;;
72437;SDS011;60444;43.534;-5.674;2023-02-11T08:31:44;14.43;;;8.10;;
72437;SDS011;60444;43.534;-5.674;2023-02-11T08:34:14;13.32;;;7.32;;
72437;SDS011;60444;43.534;-5.674;2023-02-11T08:36:43;17.52;;;7.30;;
72437;SDS011;60444;43.534;-5.674;2023-02-11T08:39:17;13.30;;;6.03;;
72437;SDS011;60444;43.534;-5.674;2023-02-11T08:41:53;16.48;;;7.45;;
72437;SDS011;60444;43.534;-5.674;2023-02-11T08:44:20;15.97;;;7.47;;
72437;SDS011;60444;43.534;-5.674;2023-02-11T08:46:47;15.10;;;7.57;;
72437;SDS011;60444;43.534;-5.674;2023-02-11T08:49:13;10.88;;;5.35;;
72437;SDS011;60444;43.534;-5.674;2023-02-11T08:51:39;14.68;;;7.00;;
72437;SDS011;60444;43.534;-5.674;2023-02-11T08:54:05;19.97;;;8.83;;
72437;SDS011;60444;43.534;-5.674;2023-02-11T08:56:33;12.35;;;6.50;;
72437;SDS011;60444;43.534;-5.674;2023-02-11T08:58:59;14.73;;;6.15;;
72437;SDS011;60444;43.534;-5.674;2023-02-11T09:01:26;12.03;;;5.70;;
72437;SDS011;60444;43.534;-5.674;2023-02-11T09:03:54;14.80;;;6.65;;
72437;SDS011;60444;43.534;-5.674;2023-02-11T09:06:20;11.15;;;6.10;;
72437;SDS011;60444;43.534;-5.674;2023-02-11T09:08:48;13.80;;;6.80;;
72437;SDS011;60444;43.534;-5.674;2023-02-11T09:11:15;11.50;;;5.95;;
72437;SDS011;60444;43.534;-5.674;2023-02-11T09:13:42;12.30;;;5.60;;
72437;SDS011;60444;43.534;-5.674;2023-02-11T09:16:14;10.82;;;5.50;;
72437;SDS011;60444;43.534;-5.674;2023-02-11T09:18:45;12.52;;;5.15;;
72437;SDS011;60444;43.534;-5.674;2023-02-11T09:21:10;10.55;;;4.85;;
72437;SDS011;60444;43.534;-5.674;2023-02-11T09:23:36;11.03;;;4.90;;
72437;SDS011;60444;43.534;-5.674;2023-02-11T09:26:06;12.40;;;4.97;;
72437;SDS011;60444;43.534;-5.674;2023-02-11T09:28:32;12.10;;;4.93;;
72437;SDS011;60444;43.534;-5.674;2023-02-11T09:30:58;10.70;;;5.00;;
72437;SDS011;60444;43.534;-5.674;2023-02-11T09:33:23;11.90;;;4.47;;
72437;SDS011;60444;43.534;-5.674;2023-02-11T09:35:49;12.15;;;5.00;;
72437;SDS011;60444;43.534;-5.674;2023-02-11T09:38:14;12.33;;;5.17;;
72437;SDS011;60444;43.534;-5.674;2023-02-11T09:40:41;9.30;;;4.20;;
72437;SDS011;60444;43.534;-5.674;2023-02-11T09:43:10;12.93;;;5.57;;
72437;SDS011;60444;43.534;-5.674;2023-02-11T09:45:41;12.65;;;4.63;;
72437;SDS011;60444;43.534;-5.674;2023-02-11T09:50:45;12.35;;;5.18;;
72437;SDS011;60444;43.534;-5.674;2023-02-11T09:53:27;12.43;;;4.45;;
72437;SDS011;60444;43.534;-5.674;2023-02-11T09:55:59;9.93;;;4.05;;
72437;SDS011;60444;43.534;-5.674;2023-02-11T09:58:34;10.60;;;4.10;;
72437;SDS011;60444;43.534;-5.674;2023-02-11T10:06:49;10.40;;;4.38;;
72437;SDS011;60444;43.534;-5.674;2023-02-11T10:12:06;9.35;;;3.85;;
72437;SDS011;60444;43.534;-5.674;2023-02-11T10:17:31;11.93;;;4.20;;
72437;SDS011;60444;43.534;-5.674;2023-02-11T10:22:50;12.10;;;3.75;;
72437;SDS011;60444;43.534;-5.674;2023-02-11T10:25:23;8.57;;;4.55;;
72437;SDS011;60444;43.534;-5.674;2023-02-11T10:28:00;9.00;;;3.90;;
72437;SDS011;60444;43.534;-5.674;2023-02-11T10:36:15;10.88;;;4.53;;
72437;SDS011;60444;43.534;-5.674;2023-02-11T10:38:43;8.75;;;4.20;;
72437;SDS011;60444;43.534;-5.674;2023-02-11T10:41:11;9.83;;;4.40;;
72437;SDS011;60444;43.534;-5.674;2023-02-11T10:43:53;10.38;;;4.65;;
72437;SDS011;60444;43.534;-5.674;2023-02-11T10:46:23;10.05;;;4.10;;
72437;SDS011;60444;43.534;-5.674;2023-02-11T10:48:53;11.02;;;4.15;;
72437;SDS011;60444;43.534;-5.674;2023-02-11T10:51:23;9.93;;;4.10;;
72437;SDS011;60444;43.534;-5.674;2023-02-11T10:56:36;10.10;;;4.33;;
72437;SDS011;60444;43.534;-5.674;2023-02-11T10:59:04;9.50;;;4.30;;
72437;SDS011;60444;43.534;-5.674;2023-02-11T11:01:39;11.10;;;4.00;;
72437;SDS011;60444;43.534;-5.674;2023-02-11T11:04:30;10.35;;;4.47;;
72437;SDS011;60444;43.534;-5.674;2023-02-11T11:09:47;9.53;;;4.40;;
72437;SDS011;60444;43.534;-5.674;2023-02-11T11:17:38;8.53;;;4.20;;
72437;SDS011;60444;43.534;-5.674;2023-02-11T11:20:15;10.80;;;4.22;;
72437;SDS011;60444;43.534;-5.674;2023-02-11T11:22:42;10.63;;;5.10;;
72437;SDS011;60444;43.534;-5.674;2023-02-11T11:25:25;11.43;;;4.90;;
72437;SDS011;60444;43.534;-5.674;2023-02-11T11:27:58;12.98;;;5.72;;
72437;SDS011;60444;43.534;-5.674;2023-02-11T11:30:38;9.55;;;4.35;;
72437;SDS011;60444;43.534;-5.674;2023-02-11T11:33:18;9.60;;;4.43;;
72437;SDS011;60444;43.534;-5.674;2023-02-11T11:36:22;8.38;;;4.15;;
72437;SDS011;60444;43.534;-5.674;2023-02-11T11:38:53;8.33;;;3.60;;
72437;SDS011;60444;43.534;-5.674;2023-02-11T11:41:26;9.55;;;3.85;;
72437;SDS011;60444;43.534;-5.674;2023-02-11T11:46:27;9.10;;;3.58;;
72437;SDS011;60444;43.534;-5.674;2023-02-11T11:48:57;9.70;;;3.78;;
72437;SDS011;60444;43.534;-5.674;2023-02-11T11:51:39;9.43;;;3.83;;
72437;SDS011;60444;43.534;-5.674;2023-02-11T11:54:11;12.45;;;4.93;;
72437;SDS011;60444;43.534;-5.674;2023-02-11T11:57:01;9.52;;;4.15;;
72437;SDS011;60444;43.534;-5.674;2023-02-11T11:59:30;10.57;;;4.10;;
72437;SDS011;60444;43.534;-5.674;2023-02-11T12:04:31;12.57;;;4.37;;
72437;SDS011;60444;43.534;-5.674;2023-02-11T12:26:31;14.25;;;4.85;;
72437;SDS011;60444;43.534;-5.674;2023-02-11T12:43:23;11.70;;;4.95;;
72437;SDS011;60444;43.534;-5.674;2023-02-11T12:55:00;11.80;;;4.82;;
72437;SDS011;60444;43.534;-5.674;2023-02-11T12:57:33;14.52;;;5.10;;
72437;SDS011;60444;43.534;-5.674;2023-02-11T13:02:52;16.00;;;4.97;;
72437;SDS011;60444;43.534;-5.674;2023-02-11T13:05:39;10.82;;;4.43;;
72437;SDS011;60444;43.534;-5.674;2023-02-11T13:10:40;9.98;;;4.57;;
72437;SDS011;60444;43.534;-5.674;2023-02-11T13:13:32;13.30;;;4.37;;
72437;SDS011;60444;43.534;-5.674;2023-02-11T13:16:37;10.40;;;4.40;;
72437;SDS011;60444;43.534;-5.674;2023-02-11T13:19:20;15.30;;;5.47;;
72437;SDS011;60444;43.534;-5.674;2023-02-11T13:27:14;11.30;;;4.20;;
72437;SDS011;60444;43.534;-5.674;2023-02-11T13:32:27;14.95;;;4.47;;
72437;SDS011;60444;43.534;-5.674;2023-02-11T13:35:36;9.63;;;4.28;;
72437;SDS011;60444;43.534;-5.674;2023-02-11T13:38:02;10.27;;;4.65;;
72437;SDS011;60444;43.534;-5.674;2023-02-11T13:40:30;10.60;;;4.80;;
72437;SDS011;60444;43.534;-5.674;2023-02-11T13:43:02;11.80;;;5.03;;
72437;SDS011;60444;43.534;-5.674;2023-02-11T13:45:44;10.98;;;4.45;;
72437;SDS011;60444;43.534;-5.674;2023-02-11T13:48:21;11.45;;;4.60;;
72437;SDS011;60444;43.534;-5.674;2023-02-11T13:50:50;14.27;;;4.93;;
72437;SDS011;60444;43.534;-5.674;2023-02-11T13:53:44;10.07;;;4.33;;
72437;SDS011;60444;43.534;-5.674;2023-02-11T13:56:28;12.27;;;4.97;;
72437;SDS011;60444;43.534;-5.674;2023-02-11T13:58:58;15.05;;;5.95;;
72437;SDS011;60444;43.534;-5.674;2023-02-11T14:05:20;11.60;;;5.40;;
72437;SDS011;60444;43.534;-5.674;2023-02-11T14:13:32;16.13;;;5.90;;
72437;SDS011;60444;43.534;-5.674;2023-02-11T14:16:19;16.63;;;5.55;;
72437;SDS011;60444;43.534;-5.674;2023-02-11T14:21:12;16.73;;;5.40;;
72437;SDS011;60444;43.534;-5.674;2023-02-11T14:23:38;13.27;;;5.88;;
72437;SDS011;60444;43.534;-5.674;2023-02-11T14:26:11;16.00;;;5.97;;
72437;SDS011;60444;43.534;-5.674;2023-02-11T14:29:06;15.90;;;5.95;;
72437;SDS011;60444;43.534;-5.674;2023-02-11T14:39:59;15.47;;;6.27;;
72437;SDS011;60444;43.534;-5.674;2023-02-11T14:42:30;13.70;;;5.75;;
72437;SDS011;60444;43.534;-5.674;2023-02-11T14:44:56;13.82;;;6.82;;
72437;SDS011;60444;43.534;-5.674;2023-02-11T14:50:18;19.33;;;6.40;;
72437;SDS011;60444;43.534;-5.674;2023-02-11T14:52:48;13.38;;;6.40;;
72437;SDS011;60444;43.534;-5.674;2023-02-11T14:58:11;16.98;;;6.40;;
72437;SDS011;60444;43.534;-5.674;2023-02-11T15:00:45;15.80;;;6.30;;
72437;SDS011;60444;43.534;-5.674;2023-02-11T15:05:56;13.57;;;5.70;;
72437;SDS011;60444;43.534;-5.674;2023-02-11T15:08:32;17.27;;;5.80;;
72437;SDS011;60444;43.534;-5.674;2023-02-11T15:11:01;13.65;;;5.43;;
72437;SDS011;60444;43.534;-5.674;2023-02-11T15:13:31;13.97;;;5.30;;
72437;SDS011;60444;43.534;-5.674;2023-02-11T15:16:04;17.73;;;5.50;;
72437;SDS011;60444;43.534;-5.674;2023-02-11T15:18:33;15.63;;;5.68;;
72437;SDS011;60444;43.534;-5.674;2023-02-11T15:21:05;13.27;;;5.43;;
72437;SDS011;60444;43.534;-5.674;2023-02-11T15:23:31;14.18;;;6.03;;
72437;SDS011;60444;43.534;-5.674;2023-02-11T15:25:57;14.73;;;6.20;;
72437;SDS011;60444;43.534;-5.674;2023-02-11T15:28:28;17.58;;;5.97;;
72437;SDS011;60444;43.534;-5.674;2023-02-11T15:31:10;12.48;;;6.13;;
72437;SDS011;60444;43.534;-5.674;2023-02-11T15:33:39;13.32;;;4.93;;
72437;SDS011;60444;43.534;-5.674;2023-02-11T15:36:05;14.97;;;6.33;;
72437;SDS011;60444;43.534;-5.674;2023-02-11T15:38:31;12.65;;;5.22;;
72437;SDS011;60444;43.534;-5.674;2023-02-11T15:41:01;18.23;;;6.77;;
72437;SDS011;60444;43.534;-5.674;2023-02-11T15:43:44;13.68;;;5.45;;
72437;SDS011;60444;43.534;-5.674;2023-02-11T15:46:18;13.88;;;5.13;;
72437;SDS011;60444;43.534;-5.674;2023-02-11T15:48:52;14.40;;;4.63;;
72437;SDS011;60444;43.534;-5.674;2023-02-11T15:51:20;16.85;;;4.78;;
72437;SDS011;60444;43.534;-5.674;2023-02-11T15:53:53;15.50;;;5.40;;
72437;SDS011;60444;43.534;-5.674;2023-02-11T15:56:24;14.63;;;5.50;;
72437;SDS011;60444;43.534;-5.674;2023-02-11T15:58:55;14.40;;;5.60;;
72437;SDS011;60444;43.534;-5.674;2023-02-11T16:01:35;11.07;;;4.63;;
72437;SDS011;60444;43.534;-5.674;2023-02-11T16:04:02;13.82;;;5.78;;
72437;SDS011;60444;43.534;-5.674;2023-02-11T16:06:37;12.33;;;4.80;;
72437;SDS011;60444;43.534;-5.674;2023-02-11T16:11:55;12.60;;;5.18;;
72437;SDS011;60444;43.534;-5.674;2023-02-11T16:14:23;15.32;;;6.50;;
72437;SDS011;60444;43.534;-5.674;2023-02-11T16:19:34;14.03;;;5.57;;
72437;SDS011;60444;43.534;-5.674;2023-02-11T16:22:10;12.48;;;5.28;;
72437;SDS011;60444;43.534;-5.674;2023-02-11T16:24:41;16.05;;;6.13;;
72437;SDS011;60444;43.534;-5.674;2023-02-11T16:27:13;13.70;;;5.67;;
72437;SDS011;60444;43.534;-5.674;2023-02-11T16:29:46;15.55;;;5.95;;
72437;SDS011;60444;43.534;-5.674;2023-02-11T16:32:24;10.65;;;5.20;;
72437;SDS011;60444;43.534;-5.674;2023-02-11T16:34:51;13.57;;;5.95;;
72437;SDS011;60444;43.534;-5.674;2023-02-11T16:37:18;11.88;;;5.30;;
72437;SDS011;60444;43.534;-5.674;2023-02-11T16:39:43;13.93;;;5.03;;
72437;SDS011;60444;43.534;-5.674;2023-02-11T16:42:10;11.50;;;4.83;;
72437;SDS011;60444;43.534;-5.674;2023-02-11T16:44:36;15.65;;;5.47;;
72437;SDS011;60444;43.534;-5.674;2023-02-11T16:47:02;10.20;;;5.03;;
72437;SDS011;60444;43.534;-5.674;2023-02-11T16:49:50;16.95;;;6.10;;
72437;SDS011;60444;43.534;-5.674;2023-02-11T16:52:16;11.17;;;5.23;;
72437;SDS011;60444;43.534;-5.674;2023-02-11T16:54:42;10.27;;;5.40;;
72437;SDS011;60444;43.534;-5.674;2023-02-11T16:57:20;15.95;;;5.30;;
72437;SDS011;60444;43.534;-5.674;2023-02-11T16:59:47;17.05;;;6.18;;
72437;SDS011;60444;43.534;-5.674;2023-02-11T17:02:30;13.80;;;5.50;;
72437;SDS011;60444;43.534;-5.674;2023-02-11T17:04:59;14.88;;;5.50;;
72437;SDS011;60444;43.534;-5.674;2023-02-11T17:07:26;15.80;;;5.70;;
72437;SDS011;60444;43.534;-5.674;2023-02-11T17:09:52;13.02;;;5.85;;
72437;SDS011;60444;43.534;-5.674;2023-02-11T17:12:18;15.47;;;6.20;;
72437;SDS011;60444;43.534;-5.674;2023-02-11T17:14:44;14.45;;;5.47;;
72437;SDS011;60444;43.534;-5.674;2023-02-11T17:17:10;15.30;;;5.63;;
72437;SDS011;60444;43.534;-5.674;2023-02-11T17:19:36;16.20;;;5.82;;
72437;SDS011;60444;43.534;-5.674;2023-02-11T17:22:02;16.67;;;5.78;;